createdAt,value
2017-07-01T00:00:32.879Z,984.05
2017-07-01T00:01:32.881Z,984.08
2017-07-01T00:02:32.889Z,984.08
2017-07-01T00:03:32.883Z,984.11
2017-07-01T00:04:32.885Z,984.11
2017-07-01T00:05:32.888Z,984.08
2017-07-01T00:06:32.888Z,984.08
2017-07-01T00:07:32.889Z,984.11
2017-07-01T00:08:32.890Z,984.14
2017-07-01T00:09:32.893Z,984.12
2017-07-01T00:10:32.893Z,984.14
2017-07-01T00:11:32.895Z,984.15
2017-07-01T00:12:32.897Z,984.15
2017-07-01T00:13:32.908Z,984.14
2017-07-01T00:14:32.906Z,984.13
2017-07-01T00:15:32.909Z,984.13
2017-07-01T00:16:32.908Z,984.14
2017-07-01T00:17:32.907Z,984.12
2017-07-01T00:18:32.913Z,984.11
2017-07-01T00:19:32.912Z,984.1
2017-07-01T00:20:32.912Z,984.1
2017-07-01T00:21:32.912Z,984.09
2017-07-01T00:22:32.914Z,984.11
2017-07-01T00:23:32.916Z,984.09
2017-07-01T00:24:32.916Z,984.07
2017-07-01T00:25:32.917Z,984.09
2017-07-01T00:26:32.919Z,984.11
2017-07-01T00:27:32.922Z,984.11
2017-07-01T00:28:32.924Z,984.14
2017-07-01T00:29:32.927Z,984.11
2017-07-01T00:30:32.928Z,984.07
2017-07-01T00:31:32.936Z,984.1
2017-07-01T00:32:32.931Z,984.09
2017-07-01T00:33:32.933Z,984.09
2017-07-01T00:34:32.936Z,984.1
2017-07-01T00:35:32.938Z,984.14
2017-07-01T00:36:32.940Z,984.09
2017-07-01T00:37:32.940Z,984.12
2017-07-01T00:38:32.945Z,984.09
2017-07-01T00:39:32.948Z,984.11
2017-07-01T00:40:32.945Z,984.1
2017-07-01T00:41:32.948Z,984.09
2017-07-01T00:42:32.950Z,984.11
2017-07-01T00:43:32.952Z,984.09
2017-07-01T00:44:32.955Z,984.12
2017-07-01T00:45:32.956Z,984.13
2017-07-01T00:46:32.959Z,984.12
2017-07-01T00:47:32.958Z,984.09
2017-07-01T00:48:32.961Z,984.1
2017-07-01T00:49:32.962Z,984.11
2017-07-01T00:50:32.964Z,984.09
2017-07-01T00:51:32.973Z,984.07
2017-07-01T00:52:32.970Z,984.07
2017-07-01T00:53:32.974Z,984.09
2017-07-01T00:54:32.973Z,984.08
2017-07-01T00:55:32.975Z,984.08
2017-07-01T00:56:32.975Z,984.1
2017-07-01T00:57:32.978Z,984.11
2017-07-01T00:58:32.980Z,984.08
2017-07-01T00:59:32.983Z,984.1
2017-07-01T01:00:32.987Z,984.1
2017-07-01T01:01:32.987Z,984.07
2017-07-01T01:02:32.990Z,984.12
2017-07-01T01:03:32.993Z,984.11
2017-07-01T01:04:32.995Z,984.18
2017-07-01T01:05:32.995Z,984.12
2017-07-01T01:06:33.097Z,984.11
2017-07-01T01:07:33.001Z,984.15
2017-07-01T01:08:33.002Z,984.15
2017-07-01T01:09:33.004Z,984.12
2017-07-01T01:10:33.006Z,984.1
2017-07-01T01:11:33.008Z,984.12
2017-07-01T01:12:33.009Z,984.12
2017-07-01T01:13:33.011Z,984.14
2017-07-01T01:14:33.014Z,984.18
2017-07-01T01:15:33.013Z,984.19
2017-07-01T01:16:33.014Z,984.15
2017-07-01T01:17:33.017Z,984.18
2017-07-01T01:18:33.018Z,984.19
2017-07-01T01:19:33.021Z,984.24
2017-07-01T01:20:33.022Z,984.24
2017-07-01T01:21:37.881Z,984.28
2017-07-01T01:22:33.030Z,984.27
2017-07-01T01:23:33.030Z,984.24
2017-07-01T01:24:33.031Z,984.27
2017-07-01T01:25:33.032Z,984.27
2017-07-01T01:26:33.035Z,984.23
2017-07-01T01:27:33.036Z,984.17
2017-07-01T01:28:33.038Z,984.23
2017-07-01T01:29:33.041Z,984.23
2017-07-01T01:30:33.045Z,984.19
2017-07-01T01:31:33.045Z,984.24
2017-07-01T01:32:33.046Z,984.2
2017-07-01T01:33:33.052Z,984.24
2017-07-01T01:34:33.049Z,984.19
2017-07-01T01:35:33.053Z,984.22
2017-07-01T01:36:33.054Z,984.31
2017-07-01T01:37:33.058Z,984.28
2017-07-01T01:38:33.057Z,984.24
2017-07-01T01:39:33.060Z,984.25
2017-07-01T01:40:33.061Z,984.22
2017-07-01T01:41:33.064Z,984.31
2017-07-01T01:42:33.066Z,984.25
2017-07-01T01:43:33.067Z,984.25
2017-07-01T01:44:33.068Z,984.26
2017-07-01T01:45:33.069Z,984.26
2017-07-01T01:46:33.074Z,984.36
2017-07-01T01:47:33.076Z,984.28
2017-07-01T01:48:33.078Z,984.28
2017-07-01T01:49:33.078Z,984.31
2017-07-01T01:50:33.080Z,984.29
2017-07-01T01:51:33.082Z,984.33
2017-07-01T01:52:33.086Z,984.3
2017-07-01T01:53:33.086Z,984.28
2017-07-01T01:54:33.088Z,984.27
2017-07-01T01:55:33.089Z,984.3
2017-07-01T01:56:33.089Z,984.3
2017-07-01T01:57:33.092Z,984.31
2017-07-01T01:58:33.094Z,984.32
2017-07-01T01:59:33.099Z,984.36
2017-07-01T02:00:33.097Z,984.33
2017-07-01T02:01:33.103Z,984.34
2017-07-01T02:02:33.102Z,984.34
2017-07-01T02:03:33.104Z,984.32
2017-07-01T02:04:33.108Z,984.36
2017-07-01T02:05:33.109Z,984.32
2017-07-01T02:06:33.110Z,984.35
2017-07-01T02:07:33.111Z,984.36
2017-07-01T02:08:33.114Z,984.39
2017-07-01T02:09:33.114Z,984.4
2017-07-01T02:10:33.119Z,984.35
2017-07-01T02:11:33.119Z,984.36
2017-07-01T02:12:33.140Z,984.36
2017-07-01T02:13:33.121Z,984.35
2017-07-01T02:14:33.124Z,984.36
2017-07-01T02:15:33.124Z,984.39
2017-07-01T02:16:33.129Z,984.4
2017-07-01T02:17:33.128Z,984.38
2017-07-01T02:18:33.128Z,984.42
2017-07-01T02:19:33.128Z,984.37
2017-07-01T02:20:33.129Z,984.35
2017-07-01T02:21:33.131Z,984.42
2017-07-01T02:22:33.132Z,984.4
2017-07-01T02:23:33.142Z,984.37
2017-07-01T02:24:33.134Z,984.38
2017-07-01T02:25:33.138Z,984.39
2017-07-01T02:26:33.140Z,984.41
2017-07-01T02:27:33.141Z,984.36
2017-07-01T02:28:33.142Z,984.34
2017-07-01T02:29:33.148Z,984.36
2017-07-01T02:30:33.144Z,984.38
2017-07-01T02:31:33.147Z,984.36
2017-07-01T02:32:33.147Z,984.4
2017-07-01T02:33:33.148Z,984.39
2017-07-01T02:34:33.151Z,984.43
2017-07-01T02:35:33.152Z,984.4
2017-07-01T02:36:33.154Z,984.46
2017-07-01T02:37:33.205Z,984.46
2017-07-01T02:38:33.158Z,984.42
2017-07-01T02:39:33.157Z,984.43
2017-07-01T02:40:33.159Z,984.42
2017-07-01T02:41:33.162Z,984.4
2017-07-01T02:42:33.164Z,984.4
2017-07-01T02:43:33.165Z,984.43
2017-07-01T02:44:33.165Z,984.45
2017-07-01T02:45:33.167Z,984.48
2017-07-01T02:46:33.169Z,984.47
2017-07-01T02:47:33.170Z,984.51
2017-07-01T02:48:33.170Z,984.54
2017-07-01T02:49:33.172Z,984.5
2017-07-01T02:50:33.174Z,984.46
2017-07-01T02:51:33.174Z,984.52
2017-07-01T02:52:33.376Z,984.56
2017-07-01T02:53:33.179Z,984.56
2017-07-01T02:54:33.181Z,984.51
2017-07-01T02:55:33.180Z,984.56
2017-07-01T02:56:33.182Z,984.56
2017-07-01T02:57:33.183Z,984.58
2017-07-01T02:58:33.183Z,984.61
2017-07-01T02:59:33.185Z,984.58
2017-07-01T03:00:33.185Z,984.63
2017-07-01T03:01:33.188Z,984.67
2017-07-01T03:02:33.189Z,984.63
2017-07-01T03:03:33.190Z,984.69
2017-07-01T03:04:33.192Z,984.63
2017-07-01T03:05:33.194Z,984.62
2017-07-01T03:06:33.195Z,984.61
2017-07-01T03:07:33.249Z,984.65
2017-07-01T03:08:33.202Z,984.62
2017-07-01T03:09:33.224Z,984.68
2017-07-01T03:10:33.219Z,984.66
2017-07-01T03:11:33.216Z,984.64
2017-07-01T03:12:33.216Z,984.66
2017-07-01T03:13:33.214Z,984.68
2017-07-01T03:14:33.219Z,984.69
2017-07-01T03:15:33.226Z,984.74
2017-07-01T03:16:33.220Z,984.73
2017-07-01T03:17:33.218Z,984.79
2017-07-01T03:18:33.218Z,984.76
2017-07-01T03:19:33.221Z,984.73
2017-07-01T03:20:33.219Z,984.76
2017-07-01T03:21:33.223Z,984.73
2017-07-01T03:22:39.124Z,984.78
2017-07-01T03:23:33.226Z,984.73
2017-07-01T03:24:33.229Z,984.79
2017-07-01T03:25:33.229Z,984.81
2017-07-01T03:26:33.230Z,984.78
2017-07-01T03:27:33.229Z,984.83
2017-07-01T03:28:33.230Z,984.9
2017-07-01T03:29:33.227Z,984.84
2017-07-01T03:30:33.230Z,984.84
2017-07-01T03:31:33.231Z,984.82
2017-07-01T03:32:33.233Z,984.84
2017-07-01T03:33:33.231Z,984.8
2017-07-01T03:34:33.241Z,984.77
2017-07-01T03:35:33.237Z,984.84
2017-07-01T03:36:33.245Z,984.83
2017-07-01T03:37:33.242Z,984.86
2017-07-01T03:38:33.248Z,984.86
2017-07-01T03:39:33.247Z,984.9
2017-07-01T03:40:33.250Z,984.92
2017-07-01T03:41:33.247Z,984.93
2017-07-01T03:42:33.246Z,984.95
2017-07-01T03:43:33.247Z,984.97
2017-07-01T03:44:33.261Z,984.95
2017-07-01T03:45:33.249Z,984.97
2017-07-01T03:46:33.252Z,984.97
2017-07-01T03:47:33.251Z,985.01
2017-07-01T03:48:33.253Z,984.99
2017-07-01T03:49:33.253Z,985
2017-07-01T03:50:33.264Z,985.01
2017-07-01T03:51:33.265Z,985
2017-07-01T03:52:33.258Z,985.02
2017-07-01T03:53:33.257Z,985.02
2017-07-01T03:54:33.259Z,985.05
2017-07-01T03:55:33.260Z,985
2017-07-01T03:56:33.263Z,984.98
2017-07-01T03:57:33.266Z,985.03
2017-07-01T03:58:33.272Z,985.04
2017-07-01T03:59:33.266Z,985.01
2017-07-01T04:00:33.272Z,985
2017-07-01T04:01:33.272Z,984.98
2017-07-01T04:02:33.308Z,984.96
2017-07-01T04:03:33.271Z,985.02
2017-07-01T04:04:33.280Z,985.04
2017-07-01T04:05:33.272Z,985.04
2017-07-01T04:06:33.276Z,985.01
2017-07-01T04:07:33.277Z,985.06
2017-07-01T04:08:33.387Z,985.01
2017-07-01T04:09:33.292Z,985.05
2017-07-01T04:10:33.292Z,985.07
2017-07-01T04:11:33.289Z,985.05
2017-07-01T04:12:33.292Z,985.09
2017-07-01T04:13:33.290Z,985.08
2017-07-01T04:14:33.288Z,985.11
2017-07-01T04:15:33.292Z,985.14
2017-07-01T04:16:33.305Z,985.14
2017-07-01T04:17:33.293Z,985.13
2017-07-01T04:18:33.292Z,985.14
2017-07-01T04:19:33.295Z,985.15
2017-07-01T04:20:33.299Z,985.16
2017-07-01T04:21:33.315Z,985.1
2017-07-01T04:22:33.310Z,985.17
2017-07-01T04:23:35.460Z,985.18
2017-07-01T04:24:33.311Z,985.17
2017-07-01T04:25:33.311Z,985.16
2017-07-01T04:26:33.314Z,985.18
2017-07-01T04:27:33.309Z,985.2
2017-07-01T04:28:33.315Z,985.19
2017-07-01T04:29:33.312Z,985.15
2017-07-01T04:30:33.313Z,985.18
2017-07-01T04:31:33.317Z,985.12
2017-07-01T04:32:33.321Z,985.12
2017-07-01T04:33:33.319Z,985.13
2017-07-01T04:34:33.323Z,985.08
2017-07-01T04:35:33.321Z,985.14
2017-07-01T04:36:33.326Z,985.15
2017-07-01T04:37:33.323Z,985.16
2017-07-01T04:38:33.323Z,985.19
2017-07-01T04:39:33.345Z,985.19
2017-07-01T04:40:33.336Z,985.2
2017-07-01T04:41:33.339Z,985.21
2017-07-01T04:42:33.339Z,985.21
2017-07-01T04:43:33.333Z,985.2
2017-07-01T04:44:33.341Z,985.21
2017-07-01T04:45:33.341Z,985.25
2017-07-01T04:46:33.342Z,985.25
2017-07-01T04:47:33.351Z,985.22
2017-07-01T04:48:33.343Z,985.21
2017-07-01T04:49:33.352Z,985.25
2017-07-01T04:50:33.346Z,985.29
2017-07-01T04:51:33.358Z,985.34
2017-07-01T04:52:33.351Z,985.33
2017-07-01T04:53:33.360Z,985.35
2017-07-01T04:54:33.361Z,985.36
2017-07-01T04:55:33.362Z,985.33
2017-07-01T04:56:33.361Z,985.35
2017-07-01T04:57:33.360Z,985.41
2017-07-01T04:58:33.364Z,985.42
2017-07-01T04:59:33.359Z,985.46
2017-07-01T05:00:33.365Z,985.47
2017-07-01T05:01:33.377Z,985.46
2017-07-01T05:02:33.371Z,985.44
2017-07-01T05:03:33.371Z,985.45
2017-07-01T05:04:33.371Z,985.48
2017-07-01T05:05:33.376Z,985.5
2017-07-01T05:06:33.375Z,985.48
2017-07-01T05:07:33.379Z,985.48
2017-07-01T05:08:33.379Z,985.5
2017-07-01T05:09:34.482Z,985.51
2017-07-01T05:10:33.380Z,985.53
2017-07-01T05:11:33.385Z,985.47
2017-07-01T05:12:33.385Z,985.49
2017-07-01T05:13:33.389Z,985.47
2017-07-01T05:14:33.389Z,985.52
2017-07-01T05:15:33.391Z,985.55
2017-07-01T05:16:33.394Z,985.55
2017-07-01T05:17:33.395Z,985.62
2017-07-01T05:18:33.396Z,985.6
2017-07-01T05:19:33.398Z,985.59
2017-07-01T05:20:33.401Z,985.52
2017-07-01T05:21:33.402Z,985.56
2017-07-01T05:22:33.404Z,985.58
2017-07-01T05:23:33.410Z,985.56
2017-07-01T05:24:33.410Z,985.53
2017-07-01T05:25:33.408Z,985.55
2017-07-01T05:26:33.413Z,985.58
2017-07-01T05:27:33.413Z,985.6
2017-07-01T05:28:33.416Z,985.59
2017-07-01T05:29:33.416Z,985.63
2017-07-01T05:30:33.419Z,985.63
2017-07-01T05:31:33.423Z,985.64
2017-07-01T05:32:33.423Z,985.64
2017-07-01T05:33:33.425Z,985.67
2017-07-01T05:34:33.426Z,985.72
2017-07-01T05:35:33.428Z,985.74
2017-07-01T05:36:33.431Z,985.76
2017-07-01T05:37:33.443Z,985.78
2017-07-01T05:38:33.435Z,985.74
2017-07-01T05:39:33.438Z,985.76
2017-07-01T05:40:33.438Z,985.8
2017-07-01T05:41:33.444Z,985.78
2017-07-01T05:42:33.444Z,985.8
2017-07-01T05:43:33.445Z,985.83
2017-07-01T05:44:33.448Z,985.79
2017-07-01T05:45:33.450Z,985.84
2017-07-01T05:46:33.453Z,985.85
2017-07-01T05:47:33.456Z,985.83
2017-07-01T05:48:33.459Z,985.82
2017-07-01T05:49:33.462Z,985.8
2017-07-01T05:50:33.463Z,985.86
2017-07-01T05:51:33.464Z,985.86
2017-07-01T05:52:33.469Z,985.85
2017-07-01T05:53:33.472Z,985.82
2017-07-01T05:54:33.473Z,985.87
2017-07-01T05:55:33.479Z,985.88
2017-07-01T05:56:33.481Z,985.85
2017-07-01T05:57:33.483Z,985.9
2017-07-01T05:58:33.483Z,985.91
2017-07-01T05:59:33.486Z,985.91
2017-07-01T06:00:33.490Z,985.93
2017-07-01T06:01:33.492Z,985.9
2017-07-01T06:02:33.494Z,985.94
2017-07-01T06:03:33.504Z,985.98
2017-07-01T06:04:33.501Z,985.99
2017-07-01T06:05:33.503Z,986.01
2017-07-01T06:06:33.507Z,985.98
2017-07-01T06:07:33.520Z,986
2017-07-01T06:08:33.511Z,986.07
2017-07-01T06:09:33.519Z,985.97
2017-07-01T06:10:34.418Z,986
2017-07-01T06:11:33.520Z,986
2017-07-01T06:12:33.522Z,986.05
2017-07-01T06:13:33.526Z,986
2017-07-01T06:14:33.529Z,986.03
2017-07-01T06:15:33.532Z,986.04
2017-07-01T06:16:33.534Z,986.09
2017-07-01T06:17:33.536Z,986.09
2017-07-01T06:18:33.540Z,986.08
2017-07-01T06:19:33.545Z,986.06
2017-07-01T06:20:33.546Z,986.1
2017-07-01T06:21:33.549Z,986.19
2017-07-01T06:22:33.553Z,986.09
2017-07-01T06:23:33.555Z,986.15
2017-07-01T06:24:33.559Z,986.17
2017-07-01T06:25:33.562Z,986.09
2017-07-01T06:26:33.568Z,986.12
2017-07-01T06:27:33.572Z,986.25
2017-07-01T06:28:33.572Z,986.07
2017-07-01T06:29:33.578Z,986.09
2017-07-01T06:30:33.579Z,986.1
2017-07-01T06:31:33.585Z,986
2017-07-01T06:32:33.595Z,986.01
2017-07-01T06:33:33.592Z,986.08
2017-07-01T06:34:33.594Z,986.11
2017-07-01T06:35:33.600Z,986.07
2017-07-01T06:36:33.606Z,986.07
2017-07-01T06:37:33.607Z,986.07
2017-07-01T06:38:33.609Z,986.07
2017-07-01T06:39:33.613Z,986.17
2017-07-01T06:40:33.624Z,986.07
2017-07-01T06:41:33.621Z,986.09
2017-07-01T06:42:33.624Z,986.1
2017-07-01T06:43:33.628Z,986.1
2017-07-01T06:44:33.632Z,986.11
2017-07-01T06:45:33.634Z,986.07
2017-07-01T06:46:33.638Z,986.15
2017-07-01T06:47:33.642Z,986.09
2017-07-01T06:48:33.646Z,986.16
2017-07-01T06:49:33.655Z,986.19
2017-07-01T06:50:33.651Z,986.14
2017-07-01T06:51:33.655Z,986.2
2017-07-01T06:52:33.658Z,986.16
2017-07-01T06:53:33.662Z,986.17
2017-07-01T06:54:33.665Z,986.16
2017-07-01T06:55:33.669Z,986.25
2017-07-01T06:56:33.671Z,986.22
2017-07-01T06:57:33.675Z,986.24
2017-07-01T06:58:33.678Z,986.3
2017-07-01T06:59:33.689Z,986.24
2017-07-01T07:00:33.687Z,986.28
2017-07-01T07:01:33.691Z,986.14
2017-07-01T07:02:33.693Z,986.16
2017-07-01T07:03:33.696Z,986.18
2017-07-01T07:04:33.701Z,986.23
2017-07-01T07:05:33.703Z,986.23
2017-07-01T07:06:33.706Z,986.31
2017-07-01T07:07:33.709Z,986.28
2017-07-01T07:08:33.711Z,986.31
2017-07-01T07:09:33.717Z,986.27
2017-07-01T07:10:33.720Z,986.19
2017-07-01T07:11:33.772Z,986.19
2017-07-01T07:12:33.735Z,986.21
2017-07-01T07:13:33.730Z,986.17
2017-07-01T07:14:33.733Z,986.13
2017-07-01T07:15:33.738Z,986.11
2017-07-01T07:16:33.741Z,986.19
2017-07-01T07:17:33.752Z,986.13
2017-07-01T07:18:33.760Z,986.17
2017-07-01T07:19:33.752Z,986.16
2017-07-01T07:20:33.755Z,986.17
2017-07-01T07:21:33.759Z,986.2
2017-07-01T07:22:33.763Z,986.22
2017-07-01T07:23:33.771Z,986.16
2017-07-01T07:24:33.776Z,986.14
2017-07-01T07:25:33.774Z,986.24
2017-07-01T07:26:34.228Z,986.17
2017-07-01T07:27:33.782Z,986.15
2017-07-01T07:28:33.784Z,986.2
2017-07-01T07:29:33.787Z,986.2
2017-07-01T07:30:33.791Z,986.19
2017-07-01T07:31:33.795Z,986.17
2017-07-01T07:32:33.800Z,986.17
2017-07-01T07:33:33.802Z,986.18
2017-07-01T07:34:33.806Z,986.19
2017-07-01T07:35:33.829Z,986.22
2017-07-01T07:36:33.813Z,986.2
2017-07-01T07:37:33.817Z,986.23
2017-07-01T07:38:33.827Z,986.26
2017-07-01T07:39:33.825Z,986.23
2017-07-01T07:40:33.828Z,986.34
2017-07-01T07:41:33.831Z,986.26
2017-07-01T07:42:33.836Z,986.28
2017-07-01T07:43:33.845Z,986.31
2017-07-01T07:44:33.843Z,986.35
2017-07-01T07:45:33.861Z,986.37
2017-07-01T07:46:33.863Z,986.34
2017-07-01T07:47:33.863Z,986.39
2017-07-01T07:48:33.866Z,986.34
2017-07-01T07:49:33.866Z,986.37
2017-07-01T07:50:33.868Z,986.36
2017-07-01T07:51:33.871Z,986.38
2017-07-01T07:52:33.873Z,986.38
2017-07-01T07:53:33.877Z,986.36
2017-07-01T07:54:33.881Z,986.35
2017-07-01T07:55:33.884Z,986.35
2017-07-01T07:56:33.888Z,986.37
2017-07-01T07:57:33.892Z,986.38
2017-07-01T07:58:33.897Z,986.37
2017-07-01T07:59:33.900Z,986.38
2017-07-01T08:00:33.904Z,986.37
2017-07-01T08:01:33.910Z,986.38
2017-07-01T08:02:33.911Z,986.36
2017-07-01T08:03:33.915Z,986.36
2017-07-01T08:04:33.936Z,986.44
2017-07-01T08:05:33.932Z,986.42
2017-07-01T08:06:33.932Z,986.41
2017-07-01T08:07:33.934Z,986.38
2017-07-01T08:08:33.935Z,986.41
2017-07-01T08:09:33.935Z,986.43
2017-07-01T08:10:33.939Z,986.52
2017-07-01T08:11:33.944Z,986.5
2017-07-01T08:12:34.798Z,986.54
2017-07-01T08:13:33.951Z,986.52
2017-07-01T08:14:33.954Z,986.56
2017-07-01T08:15:33.958Z,986.53
2017-07-01T08:16:33.960Z,986.59
2017-07-01T08:17:33.964Z,986.57
2017-07-01T08:18:33.968Z,986.57
2017-07-01T08:19:33.972Z,986.58
2017-07-01T08:20:33.980Z,986.64
2017-07-01T08:21:33.979Z,986.61
2017-07-01T08:22:33.981Z,986.62
2017-07-01T08:23:33.987Z,986.65
2017-07-01T08:24:33.989Z,986.65
2017-07-01T08:25:33.994Z,986.67
2017-07-01T08:26:33.998Z,986.65
2017-07-01T08:27:34.000Z,986.64
2017-07-01T08:28:34.011Z,986.61
2017-07-01T08:29:34.009Z,986.59
2017-07-01T08:30:34.022Z,986.65
2017-07-01T08:31:34.018Z,986.71
2017-07-01T08:32:34.021Z,986.68
2017-07-01T08:33:34.027Z,986.59
2017-07-01T08:34:34.039Z,986.65
2017-07-01T08:35:34.033Z,986.6
2017-07-01T08:36:34.041Z,986.58
2017-07-01T08:37:34.042Z,986.72
2017-07-01T08:38:34.045Z,986.69
2017-07-01T08:39:34.049Z,986.67
2017-07-01T08:40:34.054Z,986.63
2017-07-01T08:41:34.059Z,986.7
2017-07-01T08:42:34.061Z,986.69
2017-07-01T08:43:34.065Z,986.72
2017-07-01T08:44:34.069Z,986.79
2017-07-01T08:45:34.074Z,986.79
2017-07-01T08:46:34.077Z,986.73
2017-07-01T08:47:34.081Z,986.77
2017-07-01T08:48:34.098Z,986.69
2017-07-01T08:49:34.089Z,986.76
2017-07-01T08:50:34.100Z,986.76
2017-07-01T08:51:34.098Z,986.74
2017-07-01T08:52:34.103Z,986.77
2017-07-01T08:53:34.111Z,986.8
2017-07-01T08:54:34.114Z,986.76
2017-07-01T08:55:34.116Z,986.84
2017-07-01T08:56:34.120Z,986.8
2017-07-01T08:57:34.125Z,986.71
2017-07-01T08:58:34.133Z,986.71
2017-07-01T08:59:34.134Z,986.71
2017-07-01T09:00:34.138Z,986.76
2017-07-01T09:01:34.144Z,986.66
2017-07-01T09:02:34.149Z,986.65
2017-07-01T09:03:34.156Z,986.71
2017-07-01T09:04:34.160Z,986.67
2017-07-01T09:05:34.168Z,986.67
2017-07-01T09:06:34.180Z,986.6
2017-07-01T09:07:34.178Z,986.51
2017-07-01T09:08:34.185Z,986.53
2017-07-01T09:09:34.190Z,986.58
2017-07-01T09:10:34.192Z,986.54
2017-07-01T09:11:34.197Z,986.57
2017-07-01T09:12:34.202Z,986.49
2017-07-01T09:13:34.207Z,986.52
2017-07-01T09:14:34.213Z,986.64
2017-07-01T09:15:34.218Z,986.72
2017-07-01T09:16:34.224Z,986.65
2017-07-01T09:17:34.228Z,986.65
2017-07-01T09:18:34.238Z,986.58
2017-07-01T09:19:34.244Z,986.63
2017-07-01T09:20:34.242Z,986.6
2017-07-01T09:21:34.247Z,986.63
2017-07-01T09:22:34.251Z,986.79
2017-07-01T09:23:34.256Z,986.65
2017-07-01T09:24:34.262Z,986.74
2017-07-01T09:25:34.265Z,986.76
2017-07-01T09:26:34.268Z,986.72
2017-07-01T09:27:34.275Z,986.71
2017-07-01T09:28:34.277Z,986.66
2017-07-01T09:29:34.280Z,986.67
2017-07-01T09:30:34.285Z,986.68
2017-07-01T09:31:34.289Z,986.7
2017-07-01T09:32:34.300Z,986.8
2017-07-01T09:33:34.300Z,986.66
2017-07-01T09:34:34.306Z,986.67
2017-07-01T09:35:34.310Z,986.7
2017-07-01T09:36:34.311Z,986.72
2017-07-01T09:37:34.313Z,986.73
2017-07-01T09:38:34.320Z,986.71
2017-07-01T09:39:34.322Z,986.75
2017-07-01T09:40:34.326Z,986.77
2017-07-01T09:41:34.332Z,986.69
2017-07-01T09:42:34.333Z,986.71
2017-07-01T09:43:34.389Z,986.7
2017-07-01T09:44:34.350Z,986.67
2017-07-01T09:45:34.348Z,986.65
2017-07-01T09:46:34.348Z,986.71
2017-07-01T09:47:34.363Z,986.71
2017-07-01T09:48:34.356Z,986.73
2017-07-01T09:49:34.361Z,986.77
2017-07-01T09:50:34.368Z,986.78
2017-07-01T09:51:34.372Z,986.78
2017-07-01T09:52:34.377Z,986.83
2017-07-01T09:53:34.374Z,986.85
2017-07-01T09:54:34.379Z,986.83
2017-07-01T09:55:34.382Z,986.79
2017-07-01T09:56:34.388Z,986.86
2017-07-01T09:57:34.391Z,986.86
2017-07-01T09:58:34.646Z,986.89
2017-07-01T09:59:34.398Z,986.91
2017-07-01T10:00:34.403Z,986.9
2017-07-01T10:01:34.407Z,986.81
2017-07-01T10:02:34.410Z,986.87
2017-07-01T10:03:34.415Z,986.88
2017-07-01T10:04:34.420Z,986.88
2017-07-01T10:05:34.431Z,986.93
2017-07-01T10:06:34.426Z,986.85
2017-07-01T10:07:34.433Z,986.86
2017-07-01T10:08:34.434Z,986.93
2017-07-01T10:09:34.443Z,986.91
2017-07-01T10:10:34.443Z,987.09
2017-07-01T10:11:34.448Z,987.05
2017-07-01T10:12:34.451Z,987.03
2017-07-01T10:13:34.554Z,987.02
2017-07-01T10:14:34.459Z,987.06
2017-07-01T10:15:34.463Z,987.08
2017-07-01T10:16:34.467Z,987.1
2017-07-01T10:17:34.471Z,987.09
2017-07-01T10:18:34.477Z,987.05
2017-07-01T10:19:34.480Z,987.14
2017-07-01T10:20:34.485Z,987.11
2017-07-01T10:21:34.488Z,987.03
2017-07-01T10:22:34.493Z,987.08
2017-07-01T10:23:34.498Z,987
2017-07-01T10:24:34.502Z,987.06
2017-07-01T10:25:34.505Z,987.2
2017-07-01T10:26:34.520Z,987.15
2017-07-01T10:27:34.521Z,987.17
2017-07-01T10:28:36.431Z,987.09
2017-07-01T10:29:34.525Z,987.14
2017-07-01T10:30:34.529Z,987.12
2017-07-01T10:31:34.533Z,987.11
2017-07-01T10:32:34.538Z,987.08
2017-07-01T10:33:34.541Z,987.1
2017-07-01T10:34:34.546Z,987.17
2017-07-01T10:35:34.549Z,987.15
2017-07-01T10:36:34.554Z,987.13
2017-07-01T10:37:34.558Z,987.14
2017-07-01T10:38:34.563Z,987.14
2017-07-01T10:39:34.567Z,987.11
2017-07-01T10:40:34.572Z,987.14
2017-07-01T10:41:34.582Z,987.03
2017-07-01T10:42:34.584Z,987.05
2017-07-01T10:43:34.586Z,987.14
2017-07-01T10:44:34.590Z,987.06
2017-07-01T10:45:34.594Z,987.02
2017-07-01T10:46:34.597Z,987.23
2017-07-01T10:47:34.602Z,987.27
2017-07-01T10:48:34.607Z,987.25
2017-07-01T10:49:34.662Z,987.19
2017-07-01T10:50:34.617Z,987.2
2017-07-01T10:51:34.622Z,987.21
2017-07-01T10:52:34.628Z,987.29
2017-07-01T10:53:34.629Z,987.2
2017-07-01T10:54:34.651Z,987.26
2017-07-01T10:55:34.643Z,987.33
2017-07-01T10:56:34.659Z,987.32
2017-07-01T10:57:34.660Z,987.29
2017-07-01T10:58:34.665Z,987.24
2017-07-01T10:59:34.659Z,987.26
2017-07-01T11:00:34.662Z,987.27
2017-07-01T11:01:34.670Z,987.27
2017-07-01T11:02:34.671Z,987.27
2017-07-01T11:03:34.676Z,987.29
2017-07-01T11:04:34.681Z,987.3
2017-07-01T11:05:34.687Z,987.34
2017-07-01T11:06:34.691Z,987.3
2017-07-01T11:07:34.699Z,987.3
2017-07-01T11:08:34.753Z,987.35
2017-07-01T11:09:34.724Z,987.3
2017-07-01T11:10:34.724Z,987.3
2017-07-01T11:11:34.741Z,987.25
2017-07-01T11:12:34.724Z,987.25
2017-07-01T11:13:34.743Z,987.25
2017-07-01T11:14:34.744Z,987.23
2017-07-01T11:15:34.738Z,987.21
2017-07-01T11:16:34.744Z,987.38
2017-07-01T11:17:34.753Z,987.17
2017-07-01T11:18:34.755Z,987.27
2017-07-01T11:19:34.760Z,987.42
2017-07-01T11:20:34.765Z,987.13
2017-07-01T11:21:34.770Z,987.17
2017-07-01T11:22:34.778Z,987.25
2017-07-01T11:23:34.782Z,987.25
2017-07-01T11:24:36.389Z,987.2
2017-07-01T11:25:34.792Z,987.18
2017-07-01T11:26:34.797Z,987.21
2017-07-01T11:27:34.802Z,987.28
2017-07-01T11:28:34.810Z,987.2
2017-07-01T11:29:34.816Z,987.23
2017-07-01T11:30:34.818Z,987.22
2017-07-01T11:31:34.824Z,987.25
2017-07-01T11:32:34.830Z,987.16
2017-07-01T11:33:34.838Z,987.24
2017-07-01T11:34:34.841Z,987.2
2017-07-01T11:35:34.852Z,987.27
2017-07-01T11:36:34.854Z,987.26
2017-07-01T11:37:34.856Z,987.29
2017-07-01T11:38:34.862Z,987.26
2017-07-01T11:39:34.868Z,987.3
2017-07-01T11:40:34.874Z,987.4
2017-07-01T11:41:34.878Z,987.18
2017-07-01T11:42:34.883Z,987.16
2017-07-01T11:43:34.890Z,987.16
2017-07-01T11:44:34.896Z,987.22
2017-07-01T11:45:34.899Z,987.17
2017-07-01T11:46:34.905Z,987.17
2017-07-01T11:47:34.911Z,987.13
2017-07-01T11:48:34.915Z,987.12
2017-07-01T11:49:34.921Z,987.18
2017-07-01T11:50:34.926Z,987.09
2017-07-01T11:51:34.932Z,987.03
2017-07-01T11:52:34.937Z,987.04
2017-07-01T11:53:34.942Z,987.16
2017-07-01T11:54:34.948Z,987.24
2017-07-01T11:55:34.955Z,987.17
2017-07-01T11:56:34.958Z,987.2
2017-07-01T11:57:34.966Z,987.19
2017-07-01T11:58:34.973Z,987.14
2017-07-01T11:59:34.976Z,987.14
2017-07-01T12:00:34.979Z,987.11
2017-07-01T12:01:34.998Z,987.12
2017-07-01T12:02:34.989Z,987.11
2017-07-01T12:03:34.992Z,987.14
2017-07-01T12:04:35.004Z,987.12
2017-07-01T12:05:35.002Z,987.09
2017-07-01T12:06:35.009Z,987.12
2017-07-01T12:07:35.020Z,987.1
2017-07-01T12:08:35.016Z,987.11
2017-07-01T12:09:35.024Z,987.13
2017-07-01T12:10:35.025Z,987.12
2017-07-01T12:11:35.030Z,987.16
2017-07-01T12:12:35.034Z,987.14
2017-07-01T12:13:35.043Z,987.28
2017-07-01T12:14:35.048Z,987.31
2017-07-01T12:15:35.098Z,987.29
2017-07-01T12:16:35.051Z,987.3
2017-07-01T12:17:35.062Z,987.33
2017-07-01T12:18:35.065Z,987.34
2017-07-01T12:19:35.066Z,987.37
2017-07-01T12:20:35.070Z,987.38
2017-07-01T12:21:35.073Z,987.36
2017-07-01T12:22:35.075Z,987.44
2017-07-01T12:23:35.081Z,987.45
2017-07-01T12:24:35.083Z,987.43
2017-07-01T12:25:35.086Z,987.51
2017-07-01T12:26:35.090Z,987.48
2017-07-01T12:27:35.094Z,987.37
2017-07-01T12:28:35.113Z,987.44
2017-07-01T12:29:35.101Z,987.49
2017-07-01T12:30:35.108Z,987.43
2017-07-01T12:31:35.110Z,987.43